Time;durP1;ratioP1;P1;durP2;ratioP2;P2;SDS_P1;SDS_P2;PMS_P1;PMS_P2;Temp;Humidity;BMP_temperature;BMP_pressure;BME280_temperature;BME280_humidity;BME280_pressure;Samples;Min_cycle;Max_cycle;Signal;HPM_P1;HPM_P2
2022/12/22 03:25:53;;;;;;;6.37;5.77;;;;;;;;;;5094938;28;20487;-58
2022/12/22 03:28:21;;;;;;;6.07;5.60;;;;;;;;;;5094635;28;20458;-58
2022/12/22 03:30:53;;;;;;;6.83;6.33;;;;;;;;;;5094383;28;20538;-58
2022/12/22 03:33:21;;;;;;;9.90;6.10;;;;;;;;;;5094690;28;20461;-58
2022/12/22 03:35:48;;;;;;;6.97;6.37;;;;;;;;;;5094458;28;20893;-58
2022/12/22 03:38:15;;;;;;;6.50;6.00;;;;;;;;;;5094460;28;20445;-57
2022/12/22 03:40:42;;;;;;;7.00;6.40;;;;;;;;;;5094379;28;20452;-57
2022/12/22 03:46:29;;;;;;;7.77;7.07;;;;;;;;;;5094239;28;20591;-58
2022/12/22 03:49:10;;;;;;;7.10;6.40;;;;;;;;;;5094218;28;20446;-57
2022/12/22 03:51:38;;;;;;;7.40;6.70;;;;;;;;;;5094001;28;20482;-58
2022/12/22 03:54:05;;;;;;;7.17;6.63;;;;;;;;;;5094102;28;21010;-58
2022/12/22 03:56:32;;;;;;;7.10;6.50;;;;;;;;;;5094401;28;20447;-58
2022/12/22 03:58:59;;;;;;;7.50;6.90;;;;;;;;;;5094037;28;20523;-58
2022/12/22 04:01:26;;;;;;;7.23;6.63;;;;;;;;;;5093056;28;20447;-58
2022/12/22 04:03:53;;;;;;;6.40;5.90;;;;;;;;;;5093928;28;20451;-58
2022/12/22 04:06:21;;;;;;;7.23;6.63;;;;;;;;;;5093751;28;20456;-58
2022/12/22 04:08:48;;;;;;;6.70;6.10;;;;;;;;;;5094219;28;20453;-58
2022/12/22 04:14:01;;;;;;;6.83;6.30;;;;;;;;;;5093996;28;20466;-57
2022/12/22 04:16:28;;;;;;;6.80;6.23;;;;;;;;;;5093634;28;20485;-58
2022/12/22 04:18:55;;;;;;;7.30;6.70;;;;;;;;;;5093540;28;20497;-59
2022/12/22 04:21:23;;;;;;;7.30;6.70;;;;;;;;;;5093996;28;20456;-58
2022/12/22 04:23:50;;;;;;;6.93;6.33;;;;;;;;;;5093660;28;20461;-58
2022/12/22 04:26:18;;;;;;;9.83;6.57;;;;;;;;;;5093549;28;20457;-58
2022/12/22 04:28:45;;;;;;;6.67;6.13;;;;;;;;;;5093466;28;20483;-58
2022/12/22 04:31:12;;;;;;;8.00;7.07;;;;;;;;;;5093381;28;20545;-59
2022/12/22 04:33:39;;;;;;;7.77;7.00;;;;;;;;;;5093441;28;20447;-58
2022/12/22 04:36:06;;;;;;;9.00;8.10;;;;;;;;;;5093492;28;20541;-59
2022/12/22 04:38:35;;;;;;;9.73;8.60;;;;;;;;;;5093673;28;20538;-58
2022/12/22 04:41:02;;;;;;;9.20;8.40;;;;;;;;;;5093258;28;20447;-58
2022/12/22 04:43:29;;;;;;;9.97;9.00;;;;;;;;;;5093166;28;20456;-58
2022/12/22 04:45:56;;;;;;;11.33;10.27;;;;;;;;;;5092938;28;20927;-57
2022/12/22 04:48:24;;;;;;;10.27;9.27;;;;;;;;;;5093396;28;20482;-58
2022/12/22 04:50:51;;;;;;;10.33;9.33;;;;;;;;;;5093510;28;20549;-58
2022/12/22 04:53:18;;;;;;;10.63;9.60;;;;;;;;;;5093168;28;20493;-58
2022/12/22 04:55:47;;;;;;;9.60;8.60;;;;;;;;;;5093237;28;20483;-58
2022/12/22 04:58:14;;;;;;;11.57;10.47;;;;;;;;;;5092982;28;20483;-58
2022/12/22 05:00:41;;;;;;;10.00;9.00;;;;;;;;;;5092902;28;20907;-58
2022/12/22 05:03:08;;;;;;;10.47;9.50;;;;;;;;;;5093124;28;20446;-58
2022/12/22 05:05:35;;;;;;;11.60;10.43;;;;;;;;;;5093078;28;20457;-58
2022/12/22 05:08:02;;;;;;;10.27;9.17;;;;;;;;;;5093002;28;20454;-59
2022/12/22 05:10:29;;;;;;;10.30;9.30;;;;;;;;;;5092943;28;20450;-59
2022/12/22 05:12:57;;;;;;;10.10;9.10;;;;;;;;;;5094236;28;20454;-58
2022/12/22 05:15:25;;;;;;;9.17;8.20;;;;;;;;;;5097172;28;20572;-57
2022/12/22 05:17:52;;;;;;;11.67;10.57;;;;;;;;;;5097176;28;20775;-58
2022/12/22 05:20:19;;;;;;;10.43;9.43;;;;;;;;;;5097057;28;20447;-58
2022/12/22 05:22:46;;;;;;;10.90;9.20;;;;;;;;;;5097000;28;20442;-58
2022/12/22 05:25:15;;;;;;;13.00;9.57;;;;;;;;;;5097078;28;20542;-58
2022/12/22 05:27:42;;;;;;;12.03;10.37;;;;;;;;;;5096995;28;20450;-58
2022/12/22 05:30:11;;;;;;;13.07;11.20;;;;;;;;;;5096820;28;20460;-58
2022/12/22 05:32:38;;;;;;;11.37;10.20;;;;;;;;;;5096787;28;20539;-57
2022/12/22 05:35:05;;;;;;;10.83;9.73;;;;;;;;;;5096721;28;20478;-58
2022/12/22 05:37:32;;;;;;;11.23;10.07;;;;;;;;;;5096731;28;20447;-59
2022/12/22 05:39:59;;;;;;;10.77;9.73;;;;;;;;;;5096495;28;20455;-58
2022/12/22 05:42:38;;;;;;;10.90;9.80;;;;;;;;;;5096783;28;20536;-57
2022/12/22 05:45:06;;;;;;;10.30;9.30;;;;;;;;;;5096628;28;20464;-57
2022/12/22 05:47:34;;;;;;;11.23;10.07;;;;;;;;;;5096250;28;20561;-58
2022/12/22 05:50:01;;;;;;;10.20;9.20;;;;;;;;;;5096400;28;20446;-57
2022/12/22 05:52:28;;;;;;;11.40;10.40;;;;;;;;;;5096294;28;20889;-58
2022/12/22 05:54:55;;;;;;;10.73;9.63;;;;;;;;;;5096488;28;20482;-57
2022/12/22 05:57:22;;;;;;;11.90;10.70;;;;;;;;;;5096461;28;20457;-58
2022/12/22 05:59:49;;;;;;;13.03;11.50;;;;;;;;;;5096411;28;20538;-58
2022/12/22 06:02:16;;;;;;;12.83;11.00;;;;;;;;;;5096261;28;20542;-57
2022/12/22 06:04:44;;;;;;;11.93;10.73;;;;;;;;;;5096066;28;20447;-59
2022/12/22 06:07:11;;;;;;;12.53;11.23;;;;;;;;;;5095796;28;20451;-58
2022/12/22 06:09:38;;;;;;;13.13;11.73;;;;;;;;;;5096247;28;20443;-56
2022/12/22 06:12:06;;;;;;;13.63;10.70;;;;;;;;;;5096120;28;20447;-58
2022/12/22 06:14:33;;;;;;;12.20;10.90;;;;;;;;;;5095960;28;20480;-59
2022/12/22 06:17:00;;;;;;;13.87;10.80;;;;;;;;;;5096038;28;20443;-56
2022/12/22 06:19:27;;;;;;;13.17;11.60;;;;;;;;;;5096239;28;20443;-58
2022/12/22 06:21:55;;;;;;;12.90;11.07;;;;;;;;;;5095798;28;20556;-58
2022/12/22 06:24:22;;;;;;;12.70;11.33;;;;;;;;;;5094915;28;20532;-58
2022/12/22 06:26:49;;;;;;;12.60;10.53;;;;;;;;;;5095891;28;20443;-58
2022/12/22 06:29:16;;;;;;;12.60;10.80;;;;;;;;;;5095759;28;20543;-58
2022/12/22 06:31:43;;;;;;;15.80;12.73;;;;;;;;;;5095471;28;20878;-58
2022/12/22 06:34:10;;;;;;;12.50;11.20;;;;;;;;;;5095360;28;20449;-58
2022/12/22 06:36:38;;;;;;;13.93;12.37;;;;;;;;;;5095727;28;20447;-59
2022/12/22 06:39:06;;;;;;;13.93;11.93;;;;;;;;;;5095665;28;20453;-57
2022/12/22 06:44:18;;;;;;;13.73;11.93;;;;;;;;;;5095624;28;20512;-53
2022/12/22 06:46:45;;;;;;;16.67;12.80;;;;;;;;;;5095148;28;20561;-58
2022/12/22 06:49:12;;;;;;;15.90;13.17;;;;;;;;;;5095218;28;21038;-56
2022/12/22 06:51:39;;;;;;;14.57;13.07;;;;;;;;;;5095401;28;20454;-57
2022/12/22 06:54:07;;;;;;;14.67;12.27;;;;;;;;;;5095176;28;20542;-57
2022/12/22 06:56:34;;;;;;;13.90;12.40;;;;;;;;;;5095369;28;20485;-59
2022/12/22 06:59:01;;;;;;;15.47;12.97;;;;;;;;;;5095185;28;20446;-59
2022/12/22 07:01:28;;;;;;;13.67;12.13;;;;;;;;;;5095156;28;20609;-58
2022/12/22 07:03:55;;;;;;;14.43;12.23;;;;;;;;;;5095078;28;20447;-58
2022/12/22 07:06:22;;;;;;;15.17;12.50;;;;;;;;;;5094947;28;20443;-58
2022/12/22 07:08:50;;;;;;;14.47;11.60;;;;;;;;;;5094922;28;20478;-57
2022/12/22 07:11:18;;;;;;;13.30;11.40;;;;;;;;;;5094816;28;20447;-56
2022/12/22 07:13:45;;;;;;;15.00;12.23;;;;;;;;;;5094707;28;20813;-58
2022/12/22 07:16:12;;;;;;;13.10;11.23;;;;;;;;;;5094788;28;20884;-56
2022/12/22 07:18:40;;;;;;;17.77;10.47;;;;;;;;;;5094815;28;20874;-58
2022/12/22 07:21:08;;;;;;;12.93;11.20;;;;;;;;;;5094676;28;20545;-57
2022/12/22 07:23:35;;;;;;;12.97;11.60;;;;;;;;;;5094693;28;20538;-58
2022/12/22 07:26:02;;;;;;;13.80;11.30;;;;;;;;;;5094418;28;20546;-58
2022/12/22 07:28:32;;;;;;;12.70;10.70;;;;;;;;;;5094330;28;20571;-59
2022/12/22 07:30:59;;;;;;;13.80;11.17;;;;;;;;;;5094650;28;20461;-58
2022/12/22 07:33:26;;;;;;;12.87;10.73;;;;;;;;;;5094454;28;20461;-58
2022/12/22 07:36:11;;;;;;;14.40;11.80;;;;;;;;;;5093725;28;20489;-57
2022/12/22 07:38:40;;;;;;;11.47;10.27;;;;;;;;;;5093777;28;20447;-57
2022/12/22 07:42:43;;;;;;;12.60;10.77;;;;;;;;;;5094013;28;20534;-57
2022/12/22 07:43:56;;;;;;;11.98;10.70;;;;;;;;;;5093493;28;20451;-59
2022/12/22 07:46:23;;;;;;;12.00;9.90;;;;;;;;;;5093632;28;20478;-59
2022/12/22 07:51:36;;;;;;;12.23;10.93;;;;;;;;;;5093450;28;20499;-63
2022/12/22 07:54:05;;;;;;;11.63;9.83;;;;;;;;;;5093811;28;20489;-69
2022/12/22 07:56:32;;;;;;;13.63;11.10;;;;;;;;;;5093421;28;20573;-60
2022/12/22 07:59:00;;;;;;;12.00;10.47;;;;;;;;;;5093697;28;20542;-73
2022/12/22 08:01:27;;;;;;;11.43;10.33;;;;;;;;;;5093211;28;20962;-62
2022/12/22 08:03:55;;;;;;;11.97;10.50;;;;;;;;;;5093340;28;20482;-62
2022/12/22 08:06:22;;;;;;;13.50;11.50;;;;;;;;;;5093315;28;20496;-66
2022/12/22 08:08:49;;;;;;;10.50;9.40;;;;;;;;;;5094563;28;20534;-75
2022/12/22 08:11:16;;;;;;;13.40;10.70;;;;;;;;;;5101957;28;20531;-65
2022/12/22 08:13:43;;;;;;;11.60;10.43;;;;;;;;;;5107547;28;20438;-62
2022/12/22 08:16:12;;;;;;;11.70;9.60;;;;;;;;;;5113108;28;20891;-73
2022/12/22 08:18:39;;;;;;;10.60;9.33;;;;;;;;;;5113100;28;20453;-66
2022/12/22 08:21:07;;;;;;;10.93;9.70;;;;;;;;;;5113572;28;21032;-69
2022/12/22 08:23:34;;;;;;;11.03;9.90;;;;;;;;;;5113270;28;20535;-75
2022/12/22 08:26:03;;;;;;;10.83;9.20;;;;;;;;;;5113302;28;20541;-63
2022/12/22 08:28:32;;;;;;;13.20;10.10;;;;;;;;;;5113177;28;20957;-54
2022/12/22 08:31:00;;;;;;;10.43;9.30;;;;;;;;;;5113004;28;21040;-62
2022/12/22 08:33:28;;;;;;;12.47;10.00;;;;;;;;;;5113170;28;20813;-62
2022/12/22 08:35:55;;;;;;;10.37;9.27;;;;;;;;;;5113125;28;20488;-62
2022/12/22 08:38:22;;;;;;;10.13;9.10;;;;;;;;;;5113036;28;20542;-63
2022/12/22 08:40:49;;;;;;;10.23;8.93;;;;;;;;;;5113040;28;20452;-62
2022/12/22 08:43:17;;;;;;;12.53;9.40;;;;;;;;;;5113131;28;20449;-65
2022/12/22 08:45:44;;;;;;;10.43;9.43;;;;;;;;;;5113239;28;20474;-64
2022/12/22 08:48:11;;;;;;;9.33;8.40;;;;;;;;;;5112483;28;20452;-63
2022/12/22 08:50:39;;;;;;;10.30;9.20;;;;;;;;;;5113044;28;20549;-64
2022/12/22 08:53:07;;;;;;;9.87;8.87;;;;;;;;;;5112892;28;20859;-64
2022/12/22 08:55:34;;;;;;;9.40;8.50;;;;;;;;;;5112670;28;20481;-66
2022/12/22 08:58:01;;;;;;;10.10;8.10;;;;;;;;;;5112448;28;20452;-65
2022/12/22 09:00:28;;;;;;;11.00;8.90;;;;;;;;;;5112898;28;20540;-72
2022/12/22 09:02:55;;;;;;;9.47;8.57;;;;;;;;;;5112780;28;20457;-70
2022/12/22 09:05:22;;;;;;;10.00;8.40;;;;;;;;;;5112665;28;20854;-63
2022/12/22 09:07:50;;;;;;;9.10;8.20;;;;;;;;;;5112738;28;20478;-71
2022/12/22 09:10:17;;;;;;;9.00;8.13;;;;;;;;;;5112407;28;20544;-66
2022/12/22 09:12:46;;;;;;;9.13;8.23;;;;;;;;;;5112258;28;20511;-68
2022/12/22 09:15:13;;;;;;;11.63;10.00;;;;;;;;;;5112676;28;20532;-64
2022/12/22 09:17:42;;;;;;;9.03;8.13;;;;;;;;;;5112757;28;20514;-67
2022/12/22 09:20:09;;;;;;;9.40;7.70;;;;;;;;;;5112525;28;20490;-69
2022/12/22 09:22:36;;;;;;;9.27;8.30;;;;;;;;;;5112549;28;20536;-67
2022/12/22 09:25:05;;;;;;;10.03;8.97;;;;;;;;;;5112188;28;20537;-68
2022/12/22 09:27:32;;;;;;;8.77;7.57;;;;;;;;;;5112680;28;20459;-64
2022/12/22 09:29:59;;;;;;;16.23;8.60;;;;;;;;;;5112451;28;20527;-58
2022/12/22 09:32:26;;;;;;;10.33;8.07;;;;;;;;;;5112532;28;20533;-74
2022/12/22 09:34:53;;;;;;;8.63;7.83;;;;;;;;;;5112429;28;20444;-63
2022/12/22 09:37:19;;;;;;;9.73;8.77;;;;;;;;;;5112442;28;20478;-62
2022/12/22 09:39:46;;;;;;;9.33;8.30;;;;;;;;;;5112169;28;20449;-62
2022/12/22 09:42:16;;;;;;;8.97;8.17;;;;;;;;;;5112508;28;20620;-62
2022/12/22 09:44:44;;;;;;;9.50;8.10;;;;;;;;;;5112522;28;20496;-64
2022/12/22 09:47:16;;;;;;;8.50;7.70;;;;;;;;;;5112326;28;20876;-64
2022/12/22 09:49:43;;;;;;;10.40;8.37;;;;;;;;;;5112333;28;20446;-68
2022/12/22 09:52:21;;;;;;;8.50;7.70;;;;;;;;;;5112115;28;20532;-63
2022/12/22 09:54:48;;;;;;;7.90;6.80;;;;;;;;;;5112450;28;20532;-63
2022/12/22 09:57:16;;;;;;;8.70;7.90;;;;;;;;;;5112095;28;20484;-64
2022/12/22 09:59:43;;;;;;;8.20;7.40;;;;;;;;;;5113187;28;20445;-62
2022/12/22 10:02:19;;;;;;;11.20;8.40;;;;;;;;;;5115956;28;20449;-68
2022/12/22 10:04:53;;;;;;;7.93;7.10;;;;;;;;;;5115989;28;20529;-62
2022/12/22 10:07:25;;;;;;;8.63;7.73;;;;;;;;;;5116045;28;20454;-67
2022/12/22 10:09:52;;;;;;;9.30;7.43;;;;;;;;;;5115740;28;20945;-68
2022/12/22 10:12:22;;;;;;;9.53;7.57;;;;;;;;;;5115729;28;20889;-64
2022/12/22 10:14:49;;;;;;;8.80;7.63;;;;;;;;;;5115621;28;20452;-67
2022/12/22 10:17:17;;;;;;;8.60;7.67;;;;;;;;;;5115565;28;21079;-64
2022/12/22 10:19:45;;;;;;;7.20;6.50;;;;;;;;;;5115689;28;20872;-72
2022/12/22 10:22:19;;;;;;;9.10;8.20;;;;;;;;;;5115632;28;20533;-68
2022/12/22 10:24:46;;;;;;;8.00;7.13;;;;;;;;;;5115712;28;20444;-64
2022/12/22 10:27:14;;;;;;;7.77;7.07;;;;;;;;;;5115605;28;20450;-64
2022/12/22 10:29:42;;;;;;;8.27;7.47;;;;;;;;;;5115865;28;20448;-70
2022/12/22 10:32:12;;;;;;;8.20;7.30;;;;;;;;;;5115512;28;20489;-66
2022/12/22 10:34:58;;;;;;;7.80;7.10;;;;;;;;;;5115491;28;20560;-68
2022/12/22 10:37:30;;;;;;;8.50;6.90;;;;;;;;;;5115321;28;20564;-66
2022/12/22 10:39:57;;;;;;;9.53;8.23;;;;;;;;;;5112505;28;20549;-67
2022/12/22 10:42:24;;;;;;;9.30;8.30;;;;;;;;;;5100239;28;20531;-63
2022/12/22 10:44:53;;;;;;;8.47;7.67;;;;;;;;;;5094848;28;20538;-67
2022/12/22 10:47:22;;;;;;;9.47;7.77;;;;;;;;;;5094401;28;20507;-69
2022/12/22 10:49:50;;;;;;;8.97;8.13;;;;;;;;;;5094666;28;20450;-67
2022/12/22 10:52:18;;;;;;;10.77;8.60;;;;;;;;;;5094587;28;20541;-63
2022/12/22 10:54:45;;;;;;;8.50;7.70;;;;;;;;;;5094442;28;20447;-67
2022/12/22 10:57:25;;;;;;;8.07;7.27;;;;;;;;;;5094569;28;20997;-71
2022/12/22 10:59:55;;;;;;;8.10;7.30;;;;;;;;;;5097048;28;20922;-62
2022/12/22 11:02:26;;;;;;;8.37;7.67;;;;;;;;;;5112687;28;20524;-64
2022/12/22 11:04:54;;;;;;;8.10;7.20;;;;;;;;;;5114400;28;20945;-64
2022/12/22 11:07:21;;;;;;;7.80;7.10;;;;;;;;;;5114972;28;20525;-73
2022/12/22 11:09:48;;;;;;;7.87;7.00;;;;;;;;;;5114700;28;20600;-74
2022/12/22 11:12:22;;;;;;;7.93;7.20;;;;;;;;;;5114121;28;20449;-68
2022/12/22 11:14:52;;;;;;;8.13;7.33;;;;;;;;;;5114700;28;20552;-67
2022/12/22 11:17:23;;;;;;;8.70;8.00;;;;;;;;;;5105321;28;20470;-67
2022/12/22 11:19:59;;;;;;;7.57;6.87;;;;;;;;;;5094497;28;20527;-63
2022/12/22 11:22:30;;;;;;;9.07;7.53;;;;;;;;;;5094267;28;20457;-63
2022/12/22 11:25:04;;;;;;;10.82;8.35;;;;;;;;;;5093342;28;20817;-63
2022/12/22 11:27:34;;;;;;;8.77;7.80;;;;;;;;;;5094352;28;20185;-63
2022/12/22 11:30:07;;;;;;;8.20;7.40;;;;;;;;;;5093823;28;20809;-64
2022/12/22 11:32:47;;;;;;;9.47;8.50;;;;;;;;;;5094053;28;21036;-63
2022/12/22 11:35:18;;;;;;;10.00;7.27;;;;;;;;;;5104294;28;21028;-65
2022/12/22 11:37:48;;;;;;;7.97;7.27;;;;;;;;;;5109205;28;20477;-63
2022/12/22 11:40:21;;;;;;;8.63;7.83;;;;;;;;;;5099180;28;20443;-64
2022/12/22 11:42:55;;;;;;;8.40;7.60;;;;;;;;;;5094036;28;20542;-65
2022/12/22 11:45:44;;;;;;;8.93;6.30;;;;;;;;;;5093154;28;20459;-67
2022/12/22 11:48:20;;;;;;;8.50;7.70;;;;;;;;;;5101092;28;20447;-65
2022/12/22 11:50:48;;;;;;;7.60;6.80;;;;;;;;;;5093221;28;20965;-67
2022/12/22 11:53:26;;;;;;;8.90;7.80;;;;;;;;;;5093494;28;20479;-63
2022/12/22 11:56:01;;;;;;;8.70;7.90;;;;;;;;;;5101368;28;20441;-64
2022/12/22 11:58:36;;;;;;;9.40;8.40;;;;;;;;;;5093315;28;20470;-62
2022/12/22 12:01:08;;;;;;;8.60;7.87;;;;;;;;;;5093033;28;20558;-65
2022/12/22 12:03:45;;;;;;;9.53;8.63;;;;;;;;;;5093208;28;20453;-68
2022/12/22 12:06:25;;;;;;;9.13;8.33;;;;;;;;;;5093469;28;20880;-65
2022/12/22 12:08:59;;;;;;;8.70;7.90;;;;;;;;;;5093250;28;20533;-69
2022/12/22 12:11:31;;;;;;;8.70;7.80;;;;;;;;;;5093054;28;20443;-63
2022/12/22 12:14:03;;;;;;;7.10;6.47;;;;;;;;;;5107252;28;20525;-70
2022/12/22 12:16:34;;;;;;;8.67;7.80;;;;;;;;;;5113610;28;20479;-61
2022/12/22 12:19:18;;;;;;;7.80;7.07;;;;;;;;;;5113297;28;20821;-63
2022/12/22 12:21:47;;;;;;;7.90;7.23;;;;;;;;;;5112971;28;20449;-62
2022/12/22 12:24:24;;;;;;;10.00;7.80;;;;;;;;;;5112776;28;20444;-65
2022/12/22 12:26:56;;;;;;;8.77;7.90;;;;;;;;;;5113471;28;20796;-75
2022/12/22 12:29:25;;;;;;;8.37;7.47;;;;;;;;;;5113373;28;20543;-73
2022/12/22 12:31:55;;;;;;;9.07;7.60;;;;;;;;;;5113308;28;20613;-73
2022/12/22 12:34:25;;;;;;;9.00;8.10;;;;;;;;;;5113277;28;20453;-72
2022/12/22 12:36:53;;;;;;;8.10;7.40;;;;;;;;;;5112988;28;20512;-71
2022/12/22 12:39:24;;;;;;;7.77;7.17;;;;;;;;;;5113479;28;20540;-70
2022/12/22 12:41:56;;;;;;;8.23;7.43;;;;;;;;;;5113454;28;20484;-71
2022/12/22 12:44:24;;;;;;;8.77;7.93;;;;;;;;;;5113274;28;20442;-72
2022/12/22 12:46:58;;;;;;;8.07;7.37;;;;;;;;;;5112878;28;20910;-71
2022/12/22 12:49:44;;;;;;;10.53;9.40;;;;;;;;;;5112865;28;20450;-71
2022/12/22 12:52:12;;;;;;;8.40;7.67;;;;;;;;;;5113146;28;20533;-72
2022/12/22 12:54:40;;;;;;;7.10;6.43;;;;;;;;;;5113087;28;20532;-72
2022/12/22 12:57:12;;;;;;;6.30;5.70;;;;;;;;;;5112960;28;20556;-71
2022/12/22 12:59:48;;;;;;;6.00;5.50;;;;;;;;;;5112786;28;20537;-71
2022/12/22 13:02:36;;;;;;;6.43;5.70;;;;;;;;;;5113017;28;20819;-71
2022/12/22 13:05:05;;;;;;;5.20;4.83;;;;;;;;;;5106475;28;20525;-71
2022/12/22 13:07:51;;;;;;;4.63;4.23;;;;;;;;;;5112898;28;20493;-71
2022/12/22 13:10:20;;;;;;;6.20;5.60;;;;;;;;;;5112985;28;20536;-71
2022/12/22 13:12:50;;;;;;;4.40;4.10;;;;;;;;;;5112937;28;20547;-71
2022/12/22 13:15:27;;;;;;;4.90;4.50;;;;;;;;;;5113257;28;20446;-72
2022/12/22 13:17:54;;;;;;;5.57;5.13;;;;;;;;;;5112656;28;20556;-72
2022/12/22 13:20:24;;;;;;;4.90;4.50;;;;;;;;;;5112754;28;20557;-72
2022/12/22 13:22:52;;;;;;;4.60;4.20;;;;;;;;;;5113060;28;20514;-73
2022/12/22 13:25:21;;;;;;;4.87;4.47;;;;;;;;;;5113089;28;20446;-72
2022/12/22 13:27:49;;;;;;;5.27;4.63;;;;;;;;;;5113089;28;20549;-72
2022/12/22 13:30:17;;;;;;;4.50;4.10;;;;;;;;;;5112726;28;20464;-72
2022/12/22 13:32:46;;;;;;;4.10;3.80;;;;;;;;;;5112544;28;20540;-72
2022/12/22 13:35:16;;;;;;;3.90;3.60;;;;;;;;;;5115968;28;20644;-72
2022/12/22 13:37:45;;;;;;;22.47;16.90;;;;;;;;;;5116670;28;20576;-72
2022/12/22 13:40:14;;;;;;;8.00;7.20;;;;;;;;;;5116417;28;20928;-72
2022/12/22 13:42:45;;;;;;;4.30;4.00;;;;;;;;;;5116430;28;20541;-73
2022/12/22 13:45:15;;;;;;;5.00;4.50;;;;;;;;;;5116344;28;21017;-71
2022/12/22 13:47:43;;;;;;;4.40;4.10;;;;;;;;;;5116297;28;20450;-72
2022/12/22 13:50:16;;;;;;;4.00;3.70;;;;;;;;;;5116568;28;20895;-73
2022/12/22 13:52:43;;;;;;;3.97;3.63;;;;;;;;;;5116768;28;20560;-73
2022/12/22 13:55:11;;;;;;;3.23;3.03;;;;;;;;;;5116348;28;20437;-73
2022/12/22 13:57:39;;;;;;;3.50;3.30;;;;;;;;;;5116100;28;20490;-73
2022/12/22 14:00:18;;;;;;;4.47;4.10;;;;;;;;;;5115920;28;20457;-73
2022/12/22 14:02:45;;;;;;;4.10;3.90;;;;;;;;;;5116386;28;20890;-73
2022/12/22 14:05:14;;;;;;;3.83;3.63;;;;;;;;;;5116263;28;20549;-73
2022/12/22 14:07:41;;;;;;;4.33;3.93;;;;;;;;;;5115916;28;20445;-71
2022/12/22 14:10:08;;;;;;;4.83;4.53;;;;;;;;;;5115941;28;20544;-72
2022/12/22 14:12:39;;;;;;;5.20;4.80;;;;;;;;;;5115847;28;20872;-75
2022/12/22 14:15:09;;;;;;;4.90;4.60;;;;;;;;;;5116053;28;20599;-75
2022/12/22 14:17:40;;;;;;;6.30;5.70;;;;;;;;;;5115897;28;20913;-75
2022/12/22 14:20:13;;;;;;;4.97;4.40;;;;;;;;;;5116072;28;20557;-75
2022/12/22 14:22:42;;;;;;;6.00;5.37;;;;;;;;;;5115728;28;20532;-75
2022/12/22 14:25:13;;;;;;;4.30;4.00;;;;;;;;;;5115563;28;20452;-75
2022/12/22 14:27:43;;;;;;;5.37;4.97;;;;;;;;;;5115685;28;20616;-75
2022/12/22 14:30:16;;;;;;;6.23;5.30;;;;;;;;;;5115992;28;20961;-74
2022/12/22 14:32:45;;;;;;;6.07;5.57;;;;;;;;;;5115828;28;20564;-75
2022/12/22 14:35:17;;;;;;;4.90;4.50;;;;;;;;;;5115644;28;20453;-75
2022/12/22 14:37:44;;;;;;;5.53;5.13;;;;;;;;;;5115382;28;20474;-75
2022/12/22 14:40:15;;;;;;;7.60;7.10;;;;;;;;;;5115765;28;20533;-75
2022/12/22 14:42:43;;;;;;;8.43;7.67;;;;;;;;;;5115477;28;20454;-75
2022/12/22 14:45:14;;;;;;;8.00;7.40;;;;;;;;;;5114582;28;20803;-74
2022/12/22 14:47:41;;;;;;;7.90;7.30;;;;;;;;;;5094921;28;20542;-74
2022/12/22 14:50:17;;;;;;;8.00;7.40;;;;;;;;;;5094847;28;20536;-74
2022/12/22 14:52:45;;;;;;;10.40;9.53;;;;;;;;;;5095096;28;21008;-74
2022/12/22 14:55:22;;;;;;;13.57;12.13;;;;;;;;;;5094709;28;20671;-74
2022/12/22 14:57:53;;;;;;;10.60;9.70;;;;;;;;;;5094572;28;21088;-74
2022/12/22 15:00:40;;;;;;;9.10;8.40;;;;;;;;;;5094686;28;20526;-73
2022/12/22 15:03:26;;;;;;;9.23;8.53;;;;;;;;;;5092672;28;20530;-74
2022/12/22 15:05:54;;;;;;;9.90;9.03;;;;;;;;;;5094506;28;20964;-74
2022/12/22 15:08:36;;;;;;;9.20;8.60;;;;;;;;;;5094919;28;20530;-74
2022/12/22 15:11:03;;;;;;;11.00;10.10;;;;;;;;;;5094427;28;20821;-74
2022/12/22 15:13:30;;;;;;;13.80;12.70;;;;;;;;;;5094519;28;20882;-74
2022/12/22 15:15:57;;;;;;;9.90;9.10;;;;;;;;;;5094306;28;20538;-74
2022/12/22 15:18:25;;;;;;;10.17;9.27;;;;;;;;;;5094343;28;20916;-74
2022/12/22 15:20:54;;;;;;;9.17;8.47;;;;;;;;;;5094210;28;20451;-74
2022/12/22 15:23:21;;;;;;;7.80;7.20;;;;;;;;;;5094109;28;20453;-74
2022/12/22 15:25:48;;;;;;;7.33;6.73;;;;;;;;;;5094306;28;20553;-74
2022/12/22 15:28:15;;;;;;;7.63;7.13;;;;;;;;;;5094392;28;20447;-74
2022/12/22 15:30:42;;;;;;;6.97;6.23;;;;;;;;;;5094175;28;20537;-75
2022/12/22 15:33:12;;;;;;;5.93;5.53;;;;;;;;;;5094066;28;20886;-74
2022/12/22 15:35:39;;;;;;;6.53;6.03;;;;;;;;;;5094449;28;20585;-72
2022/12/22 15:38:10;;;;;;;6.07;5.60;;;;;;;;;;5093713;28;20478;-74
2022/12/22 15:40:37;;;;;;;5.50;5.10;;;;;;;;;;5094069;28;20486;-74
2022/12/22 15:43:04;;;;;;;5.03;4.73;;;;;;;;;;5094024;28;20542;-74
2022/12/22 15:45:31;;;;;;;5.50;5.10;;;;;;;;;;5096850;28;20501;-75
2022/12/22 15:47:59;;;;;;;5.73;5.23;;;;;;;;;;5114620;28;20495;-74
2022/12/22 15:50:27;;;;;;;4.73;4.43;;;;;;;;;;5114279;28;20446;-73
2022/12/22 15:52:57;;;;;;;5.03;4.60;;;;;;;;;;5114606;28;20878;-74
2022/12/22 15:55:25;;;;;;;5.37;4.97;;;;;;;;;;5114455;28;20534;-74
2022/12/22 15:57:54;;;;;;;5.20;4.80;;;;;;;;;;5114265;28;20482;-74
2022/12/22 16:00:21;;;;;;;5.80;5.40;;;;;;;;;;5114167;28;20452;-73
2022/12/22 16:02:48;;;;;;;6.30;5.80;;;;;;;;;;5114096;28;20533;-73
2022/12/22 16:05:16;;;;;;;5.63;5.23;;;;;;;;;;5113998;28;20457;-74
2022/12/22 16:07:43;;;;;;;6.50;5.80;;;;;;;;;;5114294;28;20450;-73
2022/12/22 16:10:18;;;;;;;6.47;5.97;;;;;;;;;;5114216;28;20568;-74
2022/12/22 16:12:52;;;;;;;6.60;6.07;;;;;;;;;;5114517;28;20545;-74
2022/12/22 16:15:19;;;;;;;6.50;5.97;;;;;;;;;;5113947;28;20445;-73
2022/12/22 16:17:46;;;;;;;7.40;6.80;;;;;;;;;;5113771;28;20480;-73
2022/12/22 16:20:13;;;;;;;6.90;6.33;;;;;;;;;;5114032;28;20532;-74
2022/12/22 16:22:41;;;;;;;8.67;7.97;;;;;;;;;;5114053;28;20809;-74
2022/12/22 16:25:12;;;;;;;11.30;10.20;;;;;;;;;;5113884;28;20483;-73
2022/12/22 16:27:39;;;;;;;10.10;9.20;;;;;;;;;;5113806;28;20917;-73
2022/12/22 16:30:12;;;;;;;9.17;8.30;;;;;;;;;;5113704;28;20531;-73
2022/12/22 16:32:39;;;;;;;8.93;8.13;;;;;;;;;;5113904;28;20537;-73
2022/12/22 16:35:14;;;;;;;10.17;9.17;;;;;;;;;;5113755;28;20541;-74
2022/12/22 16:37:42;;;;;;;9.93;9.07;;;;;;;;;;5113583;28;20504;-73
2022/12/22 16:40:09;;;;;;;9.43;8.63;;;;;;;;;;5113514;28;20450;-73
2022/12/22 16:42:37;;;;;;;9.30;8.40;;;;;;;;;;5113771;28;20545;-73
2022/12/22 16:45:05;;;;;;;10.17;9.10;;;;;;;;;;5113661;28;20837;-73
2022/12/22 16:47:35;;;;;;;9.17;8.27;;;;;;;;;;5113616;28;20873;-73
2022/12/22 16:50:03;;;;;;;11.73;9.60;;;;;;;;;;5113408;28;20937;-73
2022/12/22 16:52:35;;;;;;;10.63;9.53;;;;;;;;;;5113466;28;20878;-73
2022/12/22 16:55:01;;;;;;;11.90;10.80;;;;;;;;;;5113422;28;20442;-73
2022/12/22 16:57:28;;;;;;;11.00;10.00;;;;;;;;;;5113450;28;20475;-73
2022/12/22 16:59:55;;;;;;;12.67;11.37;;;;;;;;;;5113756;28;20446;-73
2022/12/22 17:02:24;;;;;;;10.47;9.50;;;;;;;;;;5113539;28;20441;-73
2022/12/22 17:04:53;;;;;;;11.53;10.50;;;;;;;;;;5113380;28;20955;-73
2022/12/22 17:07:20;;;;;;;11.67;10.47;;;;;;;;;;5113128;28;20809;-72
2022/12/22 17:09:48;;;;;;;13.67;10.70;;;;;;;;;;5118622;28;20536;-73
2022/12/22 17:12:17;;;;;;;13.43;11.63;;;;;;;;;;5120276;28;20450;-73
2022/12/22 17:14:44;;;;;;;11.73;10.57;;;;;;;;;;5120195;28;20442;-73
2022/12/22 17:17:15;;;;;;;12.40;11.13;;;;;;;;;;5120145;28;20532;-73
2022/12/22 17:19:42;;;;;;;11.03;9.40;;;;;;;;;;5120019;28;20481;-73
2022/12/22 17:22:18;;;;;;;11.40;10.30;;;;;;;;;;5119921;28;20452;-73
2022/12/22 17:24:45;;;;;;;11.70;10.50;;;;;;;;;;5120209;28;20883;-73
2022/12/22 17:27:14;;;;;;;13.63;12.20;;;;;;;;;;5120115;28;20441;-73
2022/12/22 17:29:41;;;;;;;14.20;12.70;;;;;;;;;;5119970;28;20456;-73
2022/12/22 17:32:12;;;;;;;13.70;12.27;;;;;;;;;;5119959;28;20441;-73
2022/12/22 17:34:39;;;;;;;13.43;11.83;;;;;;;;;;5119778;28;20929;-73
2022/12/22 17:37:10;;;;;;;14.23;11.97;;;;;;;;;;5120041;28;20446;-73
2022/12/22 17:39:39;;;;;;;12.33;11.03;;;;;;;;;;5120137;28;20487;-73
2022/12/22 17:42:13;;;;;;;13.67;11.83;;;;;;;;;;5119991;28;20445;-73
2022/12/22 17:44:39;;;;;;;12.10;10.87;;;;;;;;;;5119735;28;20537;-73
2022/12/22 17:47:06;;;;;;;12.67;10.20;;;;;;;;;;5119734;28;20554;-74
2022/12/22 17:49:33;;;;;;;16.10;12.57;;;;;;;;;;5120025;28;20445;-73
2022/12/22 17:52:00;;;;;;;17.23;14.20;;;;;;;;;;5119996;28;20812;-73
2022/12/22 17:54:28;;;;;;;14.07;12.70;;;;;;;;;;5119793;28;20450;-73
2022/12/22 17:57:00;;;;;;;13.50;12.10;;;;;;;;;;5119723;28;20446;-73
2022/12/22 17:59:28;;;;;;;16.17;13.67;;;;;;;;;;5119592;28;20493;-73
2022/12/22 18:01:55;;;;;;;16.50;12.63;;;;;;;;;;5119586;28;20541;-73
2022/12/22 18:04:22;;;;;;;15.10;13.60;;;;;;;;;;5119870;28;21004;-73
2022/12/22 18:06:49;;;;;;;14.27;12.87;;;;;;;;;;5119715;28;20543;-73
2022/12/22 18:09:19;;;;;;;15.20;13.70;;;;;;;;;;5119667;28;20452;-73
2022/12/22 18:11:46;;;;;;;15.30;13.60;;;;;;;;;;5119706;28;20450;-73
2022/12/22 18:14:15;;;;;;;14.13;11.80;;;;;;;;;;5119456;28;20481;-73
2022/12/22 18:16:42;;;;;;;13.20;11.70;;;;;;;;;;5119795;28;20495;-73
2022/12/22 18:19:09;;;;;;;12.13;10.83;;;;;;;;;;5119552;28;20477;-73
2022/12/22 18:21:36;;;;;;;12.97;11.40;;;;;;;;;;5115146;28;20891;-73